sensor_id;sensor_type;location;lat;lon;timestamp;P1;durP1;ratioP1;P2;durP2;ratioP2
49051;SDS011;34866;48.670;18.260;2022-12-31T00:01:04;52.70;;;22.67;;
49051;SDS011;34866;48.670;18.260;2022-12-31T00:03:36;52.00;;;22.67;;
49051;SDS011;34866;48.670;18.260;2022-12-31T00:06:20;44.78;;;19.90;;
49051;SDS011;34866;48.670;18.260;2022-12-31T00:08:47;51.35;;;22.30;;
49051;SDS011;34866;48.670;18.260;2022-12-31T00:11:13;42.10;;;20.58;;
49051;SDS011;34866;48.670;18.260;2022-12-31T00:13:39;52.25;;;24.63;;
49051;SDS011;34866;48.670;18.260;2022-12-31T00:16:12;61.00;;;26.27;;
49051;SDS011;34866;48.670;18.260;2022-12-31T00:18:43;51.20;;;23.58;;
49051;SDS011;34866;48.670;18.260;2022-12-31T00:21:16;54.05;;;24.55;;
49051;SDS011;34866;48.670;18.260;2022-12-31T00:23:43;39.25;;;21.85;;
49051;SDS011;34866;48.670;18.260;2022-12-31T00:26:16;58.92;;;25.30;;
49051;SDS011;34866;48.670;18.260;2022-12-31T00:28:48;53.97;;;24.20;;
49051;SDS011;34866;48.670;18.260;2022-12-31T00:31:19;57.22;;;26.15;;
49051;SDS011;34866;48.670;18.260;2022-12-31T00:33:48;51.28;;;23.23;;
49051;SDS011;34866;48.670;18.260;2022-12-31T00:36:23;69.07;;;26.17;;
49051;SDS011;34866;48.670;18.260;2022-12-31T00:38:50;46.88;;;21.88;;
49051;SDS011;34866;48.670;18.260;2022-12-31T00:41:17;52.85;;;22.45;;
49051;SDS011;34866;48.670;18.260;2022-12-31T00:43:45;55.00;;;23.17;;
49051;SDS011;34866;48.670;18.260;2022-12-31T00:46:12;49.05;;;22.00;;
49051;SDS011;34866;48.670;18.260;2022-12-31T00:48:38;44.65;;;22.42;;
49051;SDS011;34866;48.670;18.260;2022-12-31T00:51:08;47.17;;;21.70;;
49051;SDS011;34866;48.670;18.260;2022-12-31T00:53:38;49.60;;;22.83;;
49051;SDS011;34866;48.670;18.260;2022-12-31T00:56:05;45.83;;;21.23;;
49051;SDS011;34866;48.670;18.260;2022-12-31T00:58:35;38.47;;;19.75;;
49051;SDS011;34866;48.670;18.260;2022-12-31T01:01:17;52.58;;;21.00;;
49051;SDS011;34866;48.670;18.260;2022-12-31T01:03:49;51.25;;;20.17;;
49051;SDS011;34866;48.670;18.260;2022-12-31T01:06:16;49.60;;;22.60;;
49051;SDS011;34866;48.670;18.260;2022-12-31T01:08:42;48.58;;;22.92;;
49051;SDS011;34866;48.670;18.260;2022-12-31T01:11:09;43.35;;;20.30;;
49051;SDS011;34866;48.670;18.260;2022-12-31T01:16:19;51.22;;;23.95;;
49051;SDS011;34866;48.670;18.260;2022-12-31T01:18:53;56.08;;;25.42;;
49051;SDS011;34866;48.670;18.260;2022-12-31T01:21:19;55.97;;;24.15;;
49051;SDS011;34866;48.670;18.260;2022-12-31T01:23:46;56.33;;;23.55;;
49051;SDS011;34866;48.670;18.260;2022-12-31T01:26:13;56.67;;;27.05;;
49051;SDS011;34866;48.670;18.260;2022-12-31T01:28:40;58.60;;;24.63;;
49051;SDS011;34866;48.670;18.260;2022-12-31T01:31:07;51.30;;;23.17;;
49051;SDS011;34866;48.670;18.260;2022-12-31T01:33:40;55.08;;;23.40;;
49051;SDS011;34866;48.670;18.260;2022-12-31T01:36:10;53.80;;;22.75;;
49051;SDS011;34866;48.670;18.260;2022-12-31T01:38:41;44.17;;;22.02;;
49051;SDS011;34866;48.670;18.260;2022-12-31T01:41:10;42.30;;;19.83;;
49051;SDS011;34866;48.670;18.260;2022-12-31T01:44:00;43.38;;;19.38;;
49051;SDS011;34866;48.670;18.260;2022-12-31T01:46:38;47.65;;;19.00;;
49051;SDS011;34866;48.670;18.260;2022-12-31T01:51:46;52.30;;;21.73;;
49051;SDS011;34866;48.670;18.260;2022-12-31T01:54:17;46.05;;;20.65;;
49051;SDS011;34866;48.670;18.260;2022-12-31T01:56:48;54.63;;;20.48;;
49051;SDS011;34866;48.670;18.260;2022-12-31T01:59:16;47.80;;;22.23;;
49051;SDS011;34866;48.670;18.260;2022-12-31T02:01:44;50.22;;;20.05;;
49051;SDS011;34866;48.670;18.260;2022-12-31T02:04:12;64.65;;;22.73;;
49051;SDS011;34866;48.670;18.260;2022-12-31T02:06:44;47.78;;;19.95;;
49051;SDS011;34866;48.670;18.260;2022-12-31T02:09:14;46.95;;;18.15;;
49051;SDS011;34866;48.670;18.260;2022-12-31T02:11:40;43.90;;;20.20;;
49051;SDS011;34866;48.670;18.260;2022-12-31T02:27:59;43.28;;;17.40;;
49051;SDS011;34866;48.670;18.260;2022-12-31T02:30:32;36.00;;;17.75;;
49051;SDS011;34866;48.670;18.260;2022-12-31T02:33:09;42.60;;;17.92;;
49051;SDS011;34866;48.670;18.260;2022-12-31T02:36:03;38.75;;;16.60;;
49051;SDS011;34866;48.670;18.260;2022-12-31T02:38:34;41.58;;;20.27;;
49051;SDS011;34866;48.670;18.260;2022-12-31T02:41:36;48.13;;;20.60;;
49051;SDS011;34866;48.670;18.260;2022-12-31T02:44:20;47.42;;;18.88;;
49051;SDS011;34866;48.670;18.260;2022-12-31T02:57:52;47.78;;;22.23;;
49051;SDS011;34866;48.670;18.260;2022-12-31T03:00:24;57.95;;;20.60;;
49051;SDS011;34866;48.670;18.260;2022-12-31T03:03:08;45.53;;;21.00;;
49051;SDS011;34866;48.670;18.260;2022-12-31T03:05:44;41.95;;;20.90;;
49051;SDS011;34866;48.670;18.260;2022-12-31T03:08:20;44.83;;;21.85;;
49051;SDS011;34866;48.670;18.260;2022-12-31T03:10:47;58.53;;;21.73;;
49051;SDS011;34866;48.670;18.260;2022-12-31T03:13:13;54.97;;;21.38;;
49051;SDS011;34866;48.670;18.260;2022-12-31T03:15:41;46.50;;;21.40;;
49051;SDS011;34866;48.670;18.260;2022-12-31T03:18:11;45.85;;;19.77;;
49051;SDS011;34866;48.670;18.260;2022-12-31T03:20:44;42.30;;;20.35;;
49051;SDS011;34866;48.670;18.260;2022-12-31T03:23:33;53.70;;;20.23;;
49051;SDS011;34866;48.670;18.260;2022-12-31T03:26:00;41.35;;;19.48;;
49051;SDS011;34866;48.670;18.260;2022-12-31T03:28:28;51.33;;;20.95;;
49051;SDS011;34866;48.670;18.260;2022-12-31T03:30:55;47.40;;;18.88;;
49051;SDS011;34866;48.670;18.260;2022-12-31T03:33:23;38.97;;;19.20;;
49051;SDS011;34866;48.670;18.260;2022-12-31T03:35:49;40.33;;;18.35;;
49051;SDS011;34866;48.670;18.260;2022-12-31T03:38:16;47.03;;;19.35;;
49051;SDS011;34866;48.670;18.260;2022-12-31T03:40:50;45.67;;;21.50;;
49051;SDS011;34866;48.670;18.260;2022-12-31T03:43:17;38.55;;;19.35;;
49051;SDS011;34866;48.670;18.260;2022-12-31T03:45:46;45.13;;;21.15;;
49051;SDS011;34866;48.670;18.260;2022-12-31T03:48:13;52.65;;;20.42;;
49051;SDS011;34866;48.670;18.260;2022-12-31T03:50:38;44.30;;;19.05;;
49051;SDS011;34866;48.670;18.260;2022-12-31T03:53:04;47.30;;;22.83;;
49051;SDS011;34866;48.670;18.260;2022-12-31T03:55:30;43.75;;;19.63;;
49051;SDS011;34866;48.670;18.260;2022-12-31T03:57:58;57.55;;;22.63;;
49051;SDS011;34866;48.670;18.260;2022-12-31T04:00:24;50.55;;;25.05;;
49051;SDS011;34866;48.670;18.260;2022-12-31T04:02:50;42.88;;;19.00;;
49051;SDS011;34866;48.670;18.260;2022-12-31T04:05:16;44.75;;;19.75;;
49051;SDS011;34866;48.670;18.260;2022-12-31T04:07:44;44.63;;;20.17;;
49051;SDS011;34866;48.670;18.260;2022-12-31T04:10:10;39.47;;;17.80;;
49051;SDS011;34866;48.670;18.260;2022-12-31T04:12:41;41.42;;;18.27;;
49051;SDS011;34866;48.670;18.260;2022-12-31T04:15:08;44.22;;;21.00;;
49051;SDS011;34866;48.670;18.260;2022-12-31T04:17:35;45.42;;;19.13;;
49051;SDS011;34866;48.670;18.260;2022-12-31T04:20:01;46.33;;;19.05;;
49051;SDS011;34866;48.670;18.260;2022-12-31T04:22:30;51.45;;;23.30;;
49051;SDS011;34866;48.670;18.260;2022-12-31T04:24:56;43.85;;;20.58;;
49051;SDS011;34866;48.670;18.260;2022-12-31T04:27:21;47.08;;;21.00;;
49051;SDS011;34866;48.670;18.260;2022-12-31T04:29:47;47.72;;;20.05;;
49051;SDS011;34866;48.670;18.260;2022-12-31T04:32:13;36.97;;;18.13;;
49051;SDS011;34866;48.670;18.260;2022-12-31T04:34:38;42.85;;;20.05;;
49051;SDS011;34866;48.670;18.260;2022-12-31T04:37:04;43.25;;;20.20;;
49051;SDS011;34866;48.670;18.260;2022-12-31T04:39:30;41.03;;;18.60;;
49051;SDS011;34866;48.670;18.260;2022-12-31T04:41:57;41.65;;;16.73;;
49051;SDS011;34866;48.670;18.260;2022-12-31T04:44:26;35.03;;;15.73;;
49051;SDS011;34866;48.670;18.260;2022-12-31T04:46:51;38.90;;;17.50;;
49051;SDS011;34866;48.670;18.260;2022-12-31T04:49:17;34.13;;;15.85;;
49051;SDS011;34866;48.670;18.260;2022-12-31T04:51:44;43.97;;;19.58;;
49051;SDS011;34866;48.670;18.260;2022-12-31T04:54:09;46.88;;;20.77;;
49051;SDS011;34866;48.670;18.260;2022-12-31T04:56:35;40.45;;;17.70;;
49051;SDS011;34866;48.670;18.260;2022-12-31T04:59:02;45.97;;;20.92;;
49051;SDS011;34866;48.670;18.260;2022-12-31T05:01:29;46.13;;;21.70;;
49051;SDS011;34866;48.670;18.260;2022-12-31T05:04:14;48.03;;;19.77;;
49051;SDS011;34866;48.670;18.260;2022-12-31T05:06:40;42.97;;;20.10;;
49051;SDS011;34866;48.670;18.260;2022-12-31T05:09:06;39.78;;;19.65;;
49051;SDS011;34866;48.670;18.260;2022-12-31T05:11:31;50.20;;;21.92;;
49051;SDS011;34866;48.670;18.260;2022-12-31T05:13:57;49.58;;;20.35;;
49051;SDS011;34866;48.670;18.260;2022-12-31T05:16:29;50.88;;;21.70;;
49051;SDS011;34866;48.670;18.260;2022-12-31T05:18:54;47.88;;;20.45;;
49051;SDS011;34866;48.670;18.260;2022-12-31T05:21:21;47.20;;;20.15;;
49051;SDS011;34866;48.670;18.260;2022-12-31T05:23:47;44.55;;;17.55;;
49051;SDS011;34866;48.670;18.260;2022-12-31T05:26:13;49.50;;;22.42;;
49051;SDS011;34866;48.670;18.260;2022-12-31T05:28:39;43.85;;;22.02;;
49051;SDS011;34866;48.670;18.260;2022-12-31T05:31:05;36.75;;;18.70;;
49051;SDS011;34866;48.670;18.260;2022-12-31T05:33:31;41.42;;;19.55;;
49051;SDS011;34866;48.670;18.260;2022-12-31T05:35:58;44.08;;;19.27;;
49051;SDS011;34866;48.670;18.260;2022-12-31T05:38:24;44.22;;;18.77;;
49051;SDS011;34866;48.670;18.260;2022-12-31T05:40:57;48.10;;;21.08;;
49051;SDS011;34866;48.670;18.260;2022-12-31T05:43:25;50.07;;;20.33;;
49051;SDS011;34866;48.670;18.260;2022-12-31T05:45:51;37.67;;;18.77;;
49051;SDS011;34866;48.670;18.260;2022-12-31T05:48:16;44.90;;;19.17;;
49051;SDS011;34866;48.670;18.260;2022-12-31T05:50:42;44.40;;;21.08;;
49051;SDS011;34866;48.670;18.260;2022-12-31T05:53:07;35.83;;;18.70;;
49051;SDS011;34866;48.670;18.260;2022-12-31T05:55:33;43.90;;;18.25;;
49051;SDS011;34866;48.670;18.260;2022-12-31T05:57:59;35.78;;;17.73;;
49051;SDS011;34866;48.670;18.260;2022-12-31T06:00:24;50.63;;;19.55;;
49051;SDS011;34866;48.670;18.260;2022-12-31T06:02:50;40.53;;;19.02;;
49051;SDS011;34866;48.670;18.260;2022-12-31T06:05:16;39.05;;;19.00;;
49051;SDS011;34866;48.670;18.260;2022-12-31T06:07:44;42.35;;;18.27;;
49051;SDS011;34866;48.670;18.260;2022-12-31T06:10:10;40.72;;;17.65;;
49051;SDS011;34866;48.670;18.260;2022-12-31T06:12:36;42.30;;;18.63;;
49051;SDS011;34866;48.670;18.260;2022-12-31T06:15:02;41.75;;;18.27;;
49051;SDS011;34866;48.670;18.260;2022-12-31T06:17:28;39.08;;;18.52;;
49051;SDS011;34866;48.670;18.260;2022-12-31T06:19:56;40.17;;;18.27;;
49051;SDS011;34866;48.670;18.260;2022-12-31T06:22:22;41.55;;;17.73;;
49051;SDS011;34866;48.670;18.260;2022-12-31T06:24:53;47.13;;;18.67;;
49051;SDS011;34866;48.670;18.260;2022-12-31T06:27:19;34.65;;;17.77;;
49051;SDS011;34866;48.670;18.260;2022-12-31T06:29:45;42.88;;;18.98;;
49051;SDS011;34866;48.670;18.260;2022-12-31T06:32:12;43.95;;;17.90;;
49051;SDS011;34866;48.670;18.260;2022-12-31T06:34:37;48.20;;;21.05;;
49051;SDS011;34866;48.670;18.260;2022-12-31T06:37:03;47.78;;;20.67;;
49051;SDS011;34866;48.670;18.260;2022-12-31T06:39:29;49.33;;;20.75;;
49051;SDS011;34866;48.670;18.260;2022-12-31T06:41:55;44.13;;;20.17;;
49051;SDS011;34866;48.670;18.260;2022-12-31T06:44:20;43.60;;;21.17;;
49051;SDS011;34866;48.670;18.260;2022-12-31T06:46:47;45.17;;;20.63;;
49051;SDS011;34866;48.670;18.260;2022-12-31T06:49:13;40.20;;;20.30;;
49051;SDS011;34866;48.670;18.260;2022-12-31T06:51:40;39.90;;;18.58;;
49051;SDS011;34866;48.670;18.260;2022-12-31T06:54:06;38.30;;;20.25;;
49051;SDS011;34866;48.670;18.260;2022-12-31T06:56:32;47.25;;;19.98;;
49051;SDS011;34866;48.670;18.260;2022-12-31T06:58:58;46.95;;;19.02;;
49051;SDS011;34866;48.670;18.260;2022-12-31T07:01:26;41.65;;;18.95;;
49051;SDS011;34866;48.670;18.260;2022-12-31T07:04:28;46.63;;;19.77;;
49051;SDS011;34866;48.670;18.260;2022-12-31T07:10:21;42.92;;;18.13;;
49051;SDS011;34866;48.670;18.260;2022-12-31T07:18:30;44.83;;;18.05;;
49051;SDS011;34866;48.670;18.260;2022-12-31T07:21:27;43.88;;;20.50;;
49051;SDS011;34866;48.670;18.260;2022-12-31T07:23:59;50.00;;;21.50;;
49051;SDS011;34866;48.670;18.260;2022-12-31T07:37:06;40.83;;;17.90;;
49051;SDS011;34866;48.670;18.260;2022-12-31T07:45:19;39.63;;;17.38;;
49051;SDS011;34866;48.670;18.260;2022-12-31T07:47:51;37.38;;;18.77;;
49051;SDS011;34866;48.670;18.260;2022-12-31T07:50:23;42.78;;;19.35;;
49051;SDS011;34866;48.670;18.260;2022-12-31T07:52:49;42.20;;;18.40;;
49051;SDS011;34866;48.670;18.260;2022-12-31T07:55:15;39.97;;;19.02;;
49051;SDS011;34866;48.670;18.260;2022-12-31T07:58:02;51.05;;;23.58;;
49051;SDS011;34866;48.670;18.260;2022-12-31T08:00:32;61.92;;;28.52;;
49051;SDS011;34866;48.670;18.260;2022-12-31T08:08:52;57.90;;;24.35;;
49051;SDS011;34866;48.670;18.260;2022-12-31T08:14:11;61.00;;;22.67;;
49051;SDS011;34866;48.670;18.260;2022-12-31T08:16:38;45.30;;;19.77;;
49051;SDS011;34866;48.670;18.260;2022-12-31T08:19:05;44.25;;;19.40;;
49051;SDS011;34866;48.670;18.260;2022-12-31T08:21:47;40.75;;;18.83;;
49051;SDS011;34866;48.670;18.260;2022-12-31T08:27:11;63.95;;;25.40;;
49051;SDS011;34866;48.670;18.260;2022-12-31T08:30:02;46.63;;;22.65;;
49051;SDS011;34866;48.670;18.260;2022-12-31T08:35:17;52.58;;;24.05;;
49051;SDS011;34866;48.670;18.260;2022-12-31T08:46:02;46.55;;;21.33;;
49051;SDS011;34866;48.670;18.260;2022-12-31T08:48:40;43.05;;;19.40;;
49051;SDS011;34866;48.670;18.260;2022-12-31T08:51:11;43.67;;;20.65;;
49051;SDS011;34866;48.670;18.260;2022-12-31T08:53:48;151.30;;;51.35;;
49051;SDS011;34866;48.670;18.260;2022-12-31T08:59:31;67.15;;;29.33;;
49051;SDS011;34866;48.670;18.260;2022-12-31T09:08:08;53.67;;;26.15;;
49051;SDS011;34866;48.670;18.260;2022-12-31T09:10:22;66.65;;;29.00;;
49051;SDS011;34866;48.670;18.260;2022-12-31T09:18:31;56.13;;;25.05;;
49051;SDS011;34866;48.670;18.260;2022-12-31T09:21:02;50.42;;;25.15;;
49051;SDS011;34866;48.670;18.260;2022-12-31T09:23:28;54.97;;;26.58;;
49051;SDS011;34866;48.670;18.260;2022-12-31T09:26:22;54.47;;;24.58;;
49051;SDS011;34866;48.670;18.260;2022-12-31T09:29:30;41.60;;;20.67;;
49051;SDS011;34866;48.670;18.260;2022-12-31T09:35:09;54.47;;;21.42;;
49051;SDS011;34866;48.670;18.260;2022-12-31T09:38:03;54.58;;;20.92;;
49051;SDS011;34866;48.670;18.260;2022-12-31T09:51:55;43.85;;;19.88;;
49051;SDS011;34866;48.670;18.260;2022-12-31T09:57:40;49.25;;;23.45;;
49051;SDS011;34866;48.670;18.260;2022-12-31T10:00:38;46.40;;;20.60;;
49051;SDS011;34866;48.670;18.260;2022-12-31T10:08:37;50.95;;;18.33;;
49051;SDS011;34866;48.670;18.260;2022-12-31T10:30:16;52.08;;;20.98;;
49051;SDS011;34866;48.670;18.260;2022-12-31T11:04:07;51.38;;;20.88;;
49051;SDS011;34866;48.670;18.260;2022-12-31T11:15:31;41.08;;;17.58;;
49051;SDS011;34866;48.670;18.260;2022-12-31T11:28:48;29.02;;;12.02;;
49051;SDS011;34866;48.670;18.260;2022-12-31T11:31:22;30.73;;;15.18;;
49051;SDS011;34866;48.670;18.260;2022-12-31T11:39:56;32.28;;;14.10;;
49051;SDS011;34866;48.670;18.260;2022-12-31T11:48:26;33.22;;;14.07;;
49051;SDS011;34866;48.670;18.260;2022-12-31T11:51:09;39.47;;;13.23;;
49051;SDS011;34866;48.670;18.260;2022-12-31T11:54:06;32.35;;;13.63;;
49051;SDS011;34866;48.670;18.260;2022-12-31T11:59:38;31.75;;;14.85;;
49051;SDS011;34866;48.670;18.260;2022-12-31T12:02:12;32.92;;;13.70;;
49051;SDS011;34866;48.670;18.260;2022-12-31T12:04:40;33.50;;;13.30;;
49051;SDS011;34866;48.670;18.260;2022-12-31T12:07:09;32.28;;;13.52;;
49051;SDS011;34866;48.670;18.260;2022-12-31T12:09:37;31.38;;;13.23;;
49051;SDS011;34866;48.670;18.260;2022-12-31T12:12:05;33.05;;;13.95;;
49051;SDS011;34866;48.670;18.260;2022-12-31T12:14:32;29.85;;;13.55;;
49051;SDS011;34866;48.670;18.260;2022-12-31T12:17:05;30.45;;;14.75;;
49051;SDS011;34866;48.670;18.260;2022-12-31T12:19:52;33.63;;;13.88;;
49051;SDS011;34866;48.670;18.260;2022-12-31T12:22:23;28.35;;;13.75;;
49051;SDS011;34866;48.670;18.260;2022-12-31T12:24:51;24.35;;;12.27;;
49051;SDS011;34866;48.670;18.260;2022-12-31T12:27:25;26.92;;;12.45;;
49051;SDS011;34866;48.670;18.260;2022-12-31T12:29:52;29.83;;;14.68;;
49051;SDS011;34866;48.670;18.260;2022-12-31T12:32:19;27.15;;;12.63;;
49051;SDS011;34866;48.670;18.260;2022-12-31T12:34:49;28.75;;;12.55;;
49051;SDS011;34866;48.670;18.260;2022-12-31T12:40:25;28.85;;;12.10;;
49051;SDS011;34866;48.670;18.260;2022-12-31T12:42:51;28.65;;;12.13;;
49051;SDS011;34866;48.670;18.260;2022-12-31T12:45:19;30.10;;;13.23;;
49051;SDS011;34866;48.670;18.260;2022-12-31T12:47:58;27.33;;;13.48;;
49051;SDS011;34866;48.670;18.260;2022-12-31T12:50:36;37.83;;;14.25;;
49051;SDS011;34866;48.670;18.260;2022-12-31T12:55:40;32.70;;;13.77;;
49051;SDS011;34866;48.670;18.260;2022-12-31T13:15:21;27.02;;;13.10;;
49051;SDS011;34866;48.670;18.260;2022-12-31T13:21:17;28.67;;;12.90;;
49051;SDS011;34866;48.670;18.260;2022-12-31T13:27:01;33.38;;;13.80;;
49051;SDS011;34866;48.670;18.260;2022-12-31T13:29:43;33.40;;;14.50;;
49051;SDS011;34866;48.670;18.260;2022-12-31T13:32:12;28.27;;;14.27;;
49051;SDS011;34866;48.670;18.260;2022-12-31T13:34:43;29.85;;;14.77;;
49051;SDS011;34866;48.670;18.260;2022-12-31T13:37:33;30.17;;;15.25;;
49051;SDS011;34866;48.670;18.260;2022-12-31T13:40:06;31.00;;;15.32;;
49051;SDS011;34866;48.670;18.260;2022-12-31T13:42:52;35.83;;;17.17;;
49051;SDS011;34866;48.670;18.260;2022-12-31T13:45:23;38.50;;;19.08;;
49051;SDS011;34866;48.670;18.260;2022-12-31T13:47:54;39.03;;;17.70;;
49051;SDS011;34866;48.670;18.260;2022-12-31T13:50:36;40.67;;;18.13;;
49051;SDS011;34866;48.670;18.260;2022-12-31T13:53:13;35.90;;;16.40;;
49051;SDS011;34866;48.670;18.260;2022-12-31T13:55:41;30.67;;;15.68;;
49051;SDS011;34866;48.670;18.260;2022-12-31T13:58:22;35.72;;;17.00;;
49051;SDS011;34866;48.670;18.260;2022-12-31T14:01:05;39.35;;;15.18;;
49051;SDS011;34866;48.670;18.260;2022-12-31T14:03:59;33.85;;;15.70;;
49051;SDS011;34866;48.670;18.260;2022-12-31T14:09:29;35.55;;;17.85;;
49051;SDS011;34866;48.670;18.260;2022-12-31T14:26:30;34.95;;;17.35;;
49051;SDS011;34866;48.670;18.260;2022-12-31T14:29:16;33.95;;;15.90;;
49051;SDS011;34866;48.670;18.260;2022-12-31T14:35:17;44.72;;;18.15;;
49051;SDS011;34866;48.670;18.260;2022-12-31T14:46:06;30.63;;;13.60;;
49051;SDS011;34866;48.670;18.260;2022-12-31T14:51:12;30.15;;;15.13;;
49051;SDS011;34866;48.670;18.260;2022-12-31T14:53:38;30.42;;;14.43;;
49051;SDS011;34866;48.670;18.260;2022-12-31T14:56:26;34.70;;;14.68;;
49051;SDS011;34866;48.670;18.260;2022-12-31T14:59:00;31.10;;;14.73;;
49051;SDS011;34866;48.670;18.260;2022-12-31T15:01:26;30.95;;;15.95;;
49051;SDS011;34866;48.670;18.260;2022-12-31T15:03:53;33.40;;;15.45;;
49051;SDS011;34866;48.670;18.260;2022-12-31T15:14:15;35.85;;;15.15;;
49051;SDS011;34866;48.670;18.260;2022-12-31T15:28:00;31.20;;;13.77;;
49051;SDS011;34866;48.670;18.260;2022-12-31T15:32:57;30.70;;;13.45;;
49051;SDS011;34866;48.670;18.260;2022-12-31T15:35:28;27.55;;;13.93;;
49051;SDS011;34866;48.670;18.260;2022-12-31T15:37:57;29.00;;;15.10;;
49051;SDS011;34866;48.670;18.260;2022-12-31T15:40:26;33.63;;;14.63;;
49051;SDS011;34866;48.670;18.260;2022-12-31T15:45:37;32.85;;;15.00;;
49051;SDS011;34866;48.670;18.260;2022-12-31T15:48:14;34.58;;;16.00;;
49051;SDS011;34866;48.670;18.260;2022-12-31T15:50:42;39.08;;;17.17;;
49051;SDS011;34866;48.670;18.260;2022-12-31T15:53:16;34.38;;;15.63;;
49051;SDS011;34866;48.670;18.260;2022-12-31T15:56:00;34.63;;;15.73;;
49051;SDS011;34866;48.670;18.260;2022-12-31T15:58:29;35.30;;;18.25;;
49051;SDS011;34866;48.670;18.260;2022-12-31T16:03:44;30.63;;;16.05;;
49051;SDS011;34866;48.670;18.260;2022-12-31T16:06:14;34.72;;;16.13;;
49051;SDS011;34866;48.670;18.260;2022-12-31T16:08:44;53.50;;;21.98;;
49051;SDS011;34866;48.670;18.260;2022-12-31T16:11:12;46.10;;;21.63;;
49051;SDS011;34866;48.670;18.260;2022-12-31T16:13:41;54.22;;;24.55;;
49051;SDS011;34866;48.670;18.260;2022-12-31T16:16:19;49.33;;;23.17;;
49051;SDS011;34866;48.670;18.260;2022-12-31T16:18:50;55.33;;;23.75;;
49051;SDS011;34866;48.670;18.260;2022-12-31T16:21:33;53.90;;;22.63;;
49051;SDS011;34866;48.670;18.260;2022-12-31T16:24:04;43.78;;;20.42;;
49051;SDS011;34866;48.670;18.260;2022-12-31T16:26:46;46.83;;;18.52;;
49051;SDS011;34866;48.670;18.260;2022-12-31T16:29:19;45.22;;;21.08;;
49051;SDS011;34866;48.670;18.260;2022-12-31T16:31:47;46.83;;;20.15;;
49051;SDS011;34866;48.670;18.260;2022-12-31T16:34:17;44.00;;;22.05;;
49051;SDS011;34866;48.670;18.260;2022-12-31T16:39:28;39.45;;;18.92;;
49051;SDS011;34866;48.670;18.260;2022-12-31T16:44:44;34.55;;;16.42;;
49051;SDS011;34866;48.670;18.260;2022-12-31T16:47:53;32.72;;;16.55;;
49051;SDS011;34866;48.670;18.260;2022-12-31T16:52:46;28.45;;;13.55;;
49051;SDS011;34866;48.670;18.260;2022-12-31T16:55:22;33.85;;;15.77;;
49051;SDS011;34866;48.670;18.260;2022-12-31T16:57:57;34.30;;;15.85;;
49051;SDS011;34866;48.670;18.260;2022-12-31T17:00:30;28.67;;;14.52;;
49051;SDS011;34866;48.670;18.260;2022-12-31T17:03:03;35.28;;;16.55;;
49051;SDS011;34866;48.670;18.260;2022-12-31T17:16:43;51.53;;;21.15;;
49051;SDS011;34866;48.670;18.260;2022-12-31T17:19:46;39.90;;;18.58;;
49051;SDS011;34866;48.670;18.260;2022-12-31T17:22:23;43.88;;;17.85;;
49051;SDS011;34866;48.670;18.260;2022-12-31T17:25:00;37.05;;;17.45;;
49051;SDS011;34866;48.670;18.260;2022-12-31T17:27:32;34.22;;;17.52;;
49051;SDS011;34866;48.670;18.260;2022-12-31T17:35:57;62.88;;;26.48;;
49051;SDS011;34866;48.670;18.260;2022-12-31T17:38:40;86.18;;;36.70;;
49051;SDS011;34866;48.670;18.260;2022-12-31T17:43:32;68.03;;;29.95;;
49051;SDS011;34866;48.670;18.260;2022-12-31T17:46:00;51.30;;;27.27;;
49051;SDS011;34866;48.670;18.260;2022-12-31T17:48:27;50.35;;;23.83;;
49051;SDS011;34866;48.670;18.260;2022-12-31T17:50:54;73.47;;;33.33;;
49051;SDS011;34866;48.670;18.260;2022-12-31T17:53:21;68.97;;;28.73;;
49051;SDS011;34866;48.670;18.260;2022-12-31T17:55:48;54.08;;;26.67;;
49051;SDS011;34866;48.670;18.260;2022-12-31T17:58:23;63.97;;;29.33;;
49051;SDS011;34866;48.670;18.260;2022-12-31T18:00:54;58.35;;;28.80;;
49051;SDS011;34866;48.670;18.260;2022-12-31T18:03:20;59.70;;;27.23;;
49051;SDS011;34866;48.670;18.260;2022-12-31T18:05:46;67.57;;;28.23;;
49051;SDS011;34866;48.670;18.260;2022-12-31T18:08:12;60.50;;;28.48;;
49051;SDS011;34866;48.670;18.260;2022-12-31T18:10:39;56.53;;;26.83;;
49051;SDS011;34866;48.670;18.260;2022-12-31T18:13:13;62.78;;;24.38;;
49051;SDS011;34866;48.670;18.260;2022-12-31T18:15:41;36.33;;;17.80;;
49051;SDS011;34866;48.670;18.260;2022-12-31T18:18:14;59.55;;;26.60;;
49051;SDS011;34866;48.670;18.260;2022-12-31T18:20:57;63.53;;;28.15;;
49051;SDS011;34866;48.670;18.260;2022-12-31T18:23:26;74.53;;;30.45;;
49051;SDS011;34866;48.670;18.260;2022-12-31T18:26:01;71.88;;;29.45;;
49051;SDS011;34866;48.670;18.260;2022-12-31T18:28:27;73.60;;;33.58;;
49051;SDS011;34866;48.670;18.260;2022-12-31T18:30:53;79.43;;;34.90;;
49051;SDS011;34866;48.670;18.260;2022-12-31T18:33:18;69.25;;;31.77;;
49051;SDS011;34866;48.670;18.260;2022-12-31T18:35:48;69.85;;;30.83;;
49051;SDS011;34866;48.670;18.260;2022-12-31T18:38:15;73.72;;;31.38;;
49051;SDS011;34866;48.670;18.260;2022-12-31T18:40:43;65.20;;;30.42;;
49051;SDS011;34866;48.670;18.260;2022-12-31T18:43:20;62.60;;;31.42;;
49051;SDS011;34866;48.670;18.260;2022-12-31T18:45:47;66.00;;;29.17;;
49051;SDS011;34866;48.670;18.260;2022-12-31T18:48:13;68.25;;;31.95;;
49051;SDS011;34866;48.670;18.260;2022-12-31T18:50:40;76.75;;;29.33;;
49051;SDS011;34866;48.670;18.260;2022-12-31T18:53:10;204.70;;;31.65;;
49051;SDS011;34866;48.670;18.260;2022-12-31T18:55:47;76.63;;;28.70;;
49051;SDS011;34866;48.670;18.260;2022-12-31T18:58:17;87.72;;;29.33;;
49051;SDS011;34866;48.670;18.260;2022-12-31T19:00:43;110.55;;;34.88;;
49051;SDS011;34866;48.670;18.260;2022-12-31T19:03:13;185.35;;;42.22;;
49051;SDS011;34866;48.670;18.260;2022-12-31T19:05:44;97.22;;;39.33;;
49051;SDS011;34866;48.670;18.260;2022-12-31T19:08:18;152.27;;;39.83;;
49051;SDS011;34866;48.670;18.260;2022-12-31T19:10:47;149.77;;;34.60;;
49051;SDS011;34866;48.670;18.260;2022-12-31T19:13:15;196.30;;;37.00;;
49051;SDS011;34866;48.670;18.260;2022-12-31T19:15:46;106.88;;;37.60;;
49051;SDS011;34866;48.670;18.260;2022-12-31T19:18:16;112.65;;;33.83;;
49051;SDS011;34866;48.670;18.260;2022-12-31T19:20:43;85.75;;;34.20;;
49051;SDS011;34866;48.670;18.260;2022-12-31T19:23:12;81.80;;;35.30;;
49051;SDS011;34866;48.670;18.260;2022-12-31T19:25:42;144.63;;;47.22;;
49051;SDS011;34866;48.670;18.260;2022-12-31T19:28:13;154.48;;;43.95;;
49051;SDS011;34866;48.670;18.260;2022-12-31T19:30:41;102.85;;;38.97;;
49051;SDS011;34866;48.670;18.260;2022-12-31T19:33:07;144.50;;;38.30;;
49051;SDS011;34866;48.670;18.260;2022-12-31T19:35:32;112.65;;;37.17;;
49051;SDS011;34866;48.670;18.260;2022-12-31T19:37:58;96.88;;;35.60;;
49051;SDS011;34866;48.670;18.260;2022-12-31T19:40:26;282.73;;;44.95;;
49051;SDS011;34866;48.670;18.260;2022-12-31T19:42:53;129.85;;;38.58;;
49051;SDS011;34866;48.670;18.260;2022-12-31T19:45:23;89.32;;;36.40;;
49051;SDS011;34866;48.670;18.260;2022-12-31T19:47:51;236.57;;;39.25;;